sensor_id;sensor_type;location;lat;lon;timestamp;temperature;humidity
22787;DHT22;63134;52.020;4.714;2023-02-18T00:01:11;12.10;96.30
22787;DHT22;63134;52.020;4.714;2023-02-18T00:03:59;12.00;96.40
22787;DHT22;63134;52.020;4.714;2023-02-18T00:06:44;12.00;96.30
22787;DHT22;63134;52.020;4.714;2023-02-18T00:09:30;12.00;96.00
22787;DHT22;63134;52.020;4.714;2023-02-18T00:12:18;11.90;96.00
22787;DHT22;63134;52.020;4.714;2023-02-18T00:15:04;11.80;96.00
22787;DHT22;63134;52.020;4.714;2023-02-18T00:17:52;11.70;96.10
22787;DHT22;63134;52.020;4.714;2023-02-18T00:20:41;11.60;96.30
22787;DHT22;63134;52.020;4.714;2023-02-18T00:23:26;11.60;96.60
22787;DHT22;63134;52.020;4.714;2023-02-18T00:26:14;11.60;96.70
22787;DHT22;63134;52.020;4.714;2023-02-18T00:29:01;11.50;96.80
22787;DHT22;63134;52.020;4.714;2023-02-18T00:31:47;11.50;96.80
22787;DHT22;63134;52.020;4.714;2023-02-18T00:34:33;11.50;96.90
22787;DHT22;63134;52.020;4.714;2023-02-18T00:37:20;11.40;96.80
22787;DHT22;63134;52.020;4.714;2023-02-18T00:40:06;11.40;97.00
22787;DHT22;63134;52.020;4.714;2023-02-18T00:42:52;11.30;97.20
22787;DHT22;63134;52.020;4.714;2023-02-18T00:45:38;11.30;97.20
22787;DHT22;63134;52.020;4.714;2023-02-18T00:48:23;11.30;97.50
22787;DHT22;63134;52.020;4.714;2023-02-18T00:51:09;11.30;97.90
22787;DHT22;63134;52.020;4.714;2023-02-18T00:53:55;11.30;97.90
22787;DHT22;63134;52.020;4.714;2023-02-18T00:56:43;11.30;98.10
22787;DHT22;63134;52.020;4.714;2023-02-18T00:59:29;11.30;98.00
22787;DHT22;63134;52.020;4.714;2023-02-18T01:02:14;11.30;98.00
22787;DHT22;63134;52.020;4.714;2023-02-18T01:05:00;11.30;98.10
22787;DHT22;63134;52.020;4.714;2023-02-18T01:07:46;11.30;98.50
22787;DHT22;63134;52.020;4.714;2023-02-18T01:10:32;11.30;98.30
22787;DHT22;63134;52.020;4.714;2023-02-18T01:13:17;11.30;98.70
22787;DHT22;63134;52.020;4.714;2023-02-18T01:16:06;11.30;98.60
22787;DHT22;63134;52.020;4.714;2023-02-18T01:18:52;11.30;98.50
22787;DHT22;63134;52.020;4.714;2023-02-18T01:21:38;11.40;98.90
22787;DHT22;63134;52.020;4.714;2023-02-18T01:24:24;11.40;98.80
22787;DHT22;63134;52.020;4.714;2023-02-18T01:27:09;11.50;98.90
22787;DHT22;63134;52.020;4.714;2023-02-18T01:29:55;11.40;98.80
22787;DHT22;63134;52.020;4.714;2023-02-18T01:32:41;11.50;98.90
22787;DHT22;63134;52.020;4.714;2023-02-18T01:35:27;11.50;99.00
22787;DHT22;63134;52.020;4.714;2023-02-18T01:38:12;11.50;99.10
22787;DHT22;63134;52.020;4.714;2023-02-18T01:40:58;11.60;99.30
22787;DHT22;63134;52.020;4.714;2023-02-18T01:43:45;11.60;99.10
22787;DHT22;63134;52.020;4.714;2023-02-18T01:46:31;11.60;99.20
22787;DHT22;63134;52.020;4.714;2023-02-18T01:49:20;11.60;99.20
22787;DHT22;63134;52.020;4.714;2023-02-18T01:52:19;11.70;99.20
22787;DHT22;63134;52.020;4.714;2023-02-18T01:55:07;11.60;99.20
22787;DHT22;63134;52.020;4.714;2023-02-18T01:57:55;11.60;99.30
22787;DHT22;63134;52.020;4.714;2023-02-18T02:00:41;11.70;99.20
22787;DHT22;63134;52.020;4.714;2023-02-18T02:03:29;11.70;99.50
22787;DHT22;63134;52.020;4.714;2023-02-18T02:06:18;11.70;99.40
22787;DHT22;63134;52.020;4.714;2023-02-18T02:09:14;11.70;99.60
22787;DHT22;63134;52.020;4.714;2023-02-18T02:18:38;11.70;99.90
22787;DHT22;63134;52.020;4.714;2023-02-18T02:24:50;11.80;99.90
22787;DHT22;63134;52.020;4.714;2023-02-18T02:28:08;11.80;99.90
22787;DHT22;63134;52.020;4.714;2023-02-18T02:31:23;11.80;99.90
22787;DHT22;63134;52.020;4.714;2023-02-18T02:43:45;11.80;99.90
22787;DHT22;63134;52.020;4.714;2023-02-18T02:46:47;11.90;99.90
22787;DHT22;63134;52.020;4.714;2023-02-18T02:50:04;11.90;99.90
22787;DHT22;63134;52.020;4.714;2023-02-18T02:52:56;11.90;99.90
22787;DHT22;63134;52.020;4.714;2023-02-18T02:55:43;11.90;99.60
22787;DHT22;63134;52.020;4.714;2023-02-18T02:58:28;11.90;99.50
22787;DHT22;63134;52.020;4.714;2023-02-18T03:01:31;11.90;99.20
22787;DHT22;63134;52.020;4.714;2023-02-18T03:08:00;11.80;99.10
22787;DHT22;63134;52.020;4.714;2023-02-18T03:10:59;11.70;99.40
22787;DHT22;63134;52.020;4.714;2023-02-18T03:14:07;11.70;99.40
22787;DHT22;63134;52.020;4.714;2023-02-18T03:17:09;11.70;99.80
22787;DHT22;63134;52.020;4.714;2023-02-18T03:20:08;11.60;99.80
22787;DHT22;63134;52.020;4.714;2023-02-18T03:22:57;11.60;99.90
22787;DHT22;63134;52.020;4.714;2023-02-18T03:25:44;11.60;99.90
22787;DHT22;63134;52.020;4.714;2023-02-18T03:28:31;11.60;99.90
22787;DHT22;63134;52.020;4.714;2023-02-18T03:31:22;11.60;99.90
22787;DHT22;63134;52.020;4.714;2023-02-18T03:34:26;11.60;99.90
22787;DHT22;63134;52.020;4.714;2023-02-18T03:37:14;11.60;99.90
22787;DHT22;63134;52.020;4.714;2023-02-18T03:40:01;11.60;99.90
22787;DHT22;63134;52.020;4.714;2023-02-18T03:42:46;11.70;99.90
22787;DHT22;63134;52.020;4.714;2023-02-18T03:45:32;11.70;99.90
22787;DHT22;63134;52.020;4.714;2023-02-18T03:48:18;11.70;99.90
22787;DHT22;63134;52.020;4.714;2023-02-18T03:51:10;11.70;99.90
22787;DHT22;63134;52.020;4.714;2023-02-18T03:53:56;11.70;99.90
22787;DHT22;63134;52.020;4.714;2023-02-18T03:56:41;11.70;99.90
22787;DHT22;63134;52.020;4.714;2023-02-18T03:59:27;11.70;99.90
22787;DHT22;63134;52.020;4.714;2023-02-18T04:02:13;11.70;99.90
22787;DHT22;63134;52.020;4.714;2023-02-18T04:04:58;11.70;99.90
22787;DHT22;63134;52.020;4.714;2023-02-18T04:07:44;11.70;99.90
22787;DHT22;63134;52.020;4.714;2023-02-18T04:10:29;11.80;99.90
22787;DHT22;63134;52.020;4.714;2023-02-18T04:13:18;11.80;99.90
22787;DHT22;63134;52.020;4.714;2023-02-18T04:16:04;11.70;99.90
22787;DHT22;63134;52.020;4.714;2023-02-18T04:18:52;11.70;99.90
22787;DHT22;63134;52.020;4.714;2023-02-18T04:21:38;11.70;99.90
22787;DHT22;63134;52.020;4.714;2023-02-18T04:24:27;11.70;99.90
22787;DHT22;63134;52.020;4.714;2023-02-18T04:27:12;11.70;99.90
22787;DHT22;63134;52.020;4.714;2023-02-18T04:29:58;11.80;99.90
22787;DHT22;63134;52.020;4.714;2023-02-18T04:32:45;11.80;99.90
22787;DHT22;63134;52.020;4.714;2023-02-18T04:35:32;11.80;99.90
22787;DHT22;63134;52.020;4.714;2023-02-18T04:38:17;11.80;99.90
22787;DHT22;63134;52.020;4.714;2023-02-18T04:41:03;11.80;99.90
22787;DHT22;63134;52.020;4.714;2023-02-18T04:43:49;11.80;99.90
22787;DHT22;63134;52.020;4.714;2023-02-18T04:46:35;11.80;99.90
22787;DHT22;63134;52.020;4.714;2023-02-18T04:49:20;11.90;99.90
22787;DHT22;63134;52.020;4.714;2023-02-18T04:52:06;11.80;99.90
22787;DHT22;63134;52.020;4.714;2023-02-18T04:54:51;11.80;99.90
22787;DHT22;63134;52.020;4.714;2023-02-18T04:57:36;11.80;99.90
22787;DHT22;63134;52.020;4.714;2023-02-18T05:00:22;11.80;99.90
22787;DHT22;63134;52.020;4.714;2023-02-18T05:03:08;11.80;99.90
22787;DHT22;63134;52.020;4.714;2023-02-18T05:05:53;11.80;99.90
22787;DHT22;63134;52.020;4.714;2023-02-18T05:08:41;11.80;99.90
22787;DHT22;63134;52.020;4.714;2023-02-18T05:11:26;11.90;99.90
22787;DHT22;63134;52.020;4.714;2023-02-18T05:14:13;11.90;99.90
22787;DHT22;63134;52.020;4.714;2023-02-18T05:17:07;11.90;99.90
22787;DHT22;63134;52.020;4.714;2023-02-18T05:19:53;11.90;99.90
22787;DHT22;63134;52.020;4.714;2023-02-18T05:22:41;11.90;99.90
22787;DHT22;63134;52.020;4.714;2023-02-18T05:25:27;11.90;99.90
22787;DHT22;63134;52.020;4.714;2023-02-18T05:28:12;12.00;99.90
22787;DHT22;63134;52.020;4.714;2023-02-18T05:30:58;12.00;99.90
22787;DHT22;63134;52.020;4.714;2023-02-18T05:33:44;12.00;99.90
22787;DHT22;63134;52.020;4.714;2023-02-18T05:36:29;12.10;99.90
22787;DHT22;63134;52.020;4.714;2023-02-18T05:39:15;12.10;99.90
22787;DHT22;63134;52.020;4.714;2023-02-18T05:42:01;12.10;99.90
22787;DHT22;63134;52.020;4.714;2023-02-18T05:44:49;12.10;99.90
22787;DHT22;63134;52.020;4.714;2023-02-18T05:47:36;12.10;99.90
22787;DHT22;63134;52.020;4.714;2023-02-18T05:50:22;12.10;99.90
22787;DHT22;63134;52.020;4.714;2023-02-18T05:53:08;12.20;99.90
22787;DHT22;63134;52.020;4.714;2023-02-18T05:55:55;12.20;99.90
22787;DHT22;63134;52.020;4.714;2023-02-18T05:58:41;12.20;99.90
22787;DHT22;63134;52.020;4.714;2023-02-18T06:01:26;12.20;99.90
22787;DHT22;63134;52.020;4.714;2023-02-18T06:04:12;12.20;99.90
22787;DHT22;63134;52.020;4.714;2023-02-18T06:06:58;12.10;99.90
22787;DHT22;63134;52.020;4.714;2023-02-18T06:09:43;12.10;99.90
22787;DHT22;63134;52.020;4.714;2023-02-18T06:12:31;12.00;99.90
22787;DHT22;63134;52.020;4.714;2023-02-18T06:15:16;12.00;99.90
22787;DHT22;63134;52.020;4.714;2023-02-18T06:18:01;11.90;99.90
22787;DHT22;63134;52.020;4.714;2023-02-18T06:20:48;11.90;99.90
22787;DHT22;63134;52.020;4.714;2023-02-18T06:23:33;11.90;99.90
22787;DHT22;63134;52.020;4.714;2023-02-18T06:26:22;12.00;99.90
22787;DHT22;63134;52.020;4.714;2023-02-18T06:29:08;12.00;99.90
22787;DHT22;63134;52.020;4.714;2023-02-18T06:31:57;11.90;99.90
22787;DHT22;63134;52.020;4.714;2023-02-18T06:34:42;12.00;99.90
22787;DHT22;63134;52.020;4.714;2023-02-18T06:37:31;12.00;99.90
22787;DHT22;63134;52.020;4.714;2023-02-18T06:40:16;12.00;99.90
22787;DHT22;63134;52.020;4.714;2023-02-18T06:43:02;12.00;99.90
22787;DHT22;63134;52.020;4.714;2023-02-18T06:45:48;12.00;99.90
22787;DHT22;63134;52.020;4.714;2023-02-18T06:48:35;12.00;99.90
22787;DHT22;63134;52.020;4.714;2023-02-18T06:51:20;12.00;99.90
22787;DHT22;63134;52.020;4.714;2023-02-18T06:54:06;12.00;99.90
22787;DHT22;63134;52.020;4.714;2023-02-18T06:56:54;11.90;99.90
22787;DHT22;63134;52.020;4.714;2023-02-18T06:59:39;11.90;99.90
22787;DHT22;63134;52.020;4.714;2023-02-18T07:02:25;11.90;99.90
22787;DHT22;63134;52.020;4.714;2023-02-18T07:05:10;11.90;99.90
22787;DHT22;63134;52.020;4.714;2023-02-18T07:07:56;11.90;99.90
22787;DHT22;63134;52.020;4.714;2023-02-18T07:10:41;11.90;99.90
22787;DHT22;63134;52.020;4.714;2023-02-18T07:13:27;11.90;99.90
22787;DHT22;63134;52.020;4.714;2023-02-18T07:16:12;11.90;99.90
22787;DHT22;63134;52.020;4.714;2023-02-18T07:19:01;11.80;99.80
22787;DHT22;63134;52.020;4.714;2023-02-18T07:21:46;11.90;99.60
22787;DHT22;63134;52.020;4.714;2023-02-18T07:24:32;11.80;99.10
22787;DHT22;63134;52.020;4.714;2023-02-18T07:27:18;11.80;99.00
22787;DHT22;63134;52.020;4.714;2023-02-18T07:30:04;11.80;98.70
22787;DHT22;63134;52.020;4.714;2023-02-18T07:32:50;11.80;98.40
22787;DHT22;63134;52.020;4.714;2023-02-18T07:35:35;11.80;98.20
22787;DHT22;63134;52.020;4.714;2023-02-18T07:38:21;11.80;97.90
22787;DHT22;63134;52.020;4.714;2023-02-18T07:41:16;11.80;97.90
22787;DHT22;63134;52.020;4.714;2023-02-18T07:44:05;11.80;97.40
22787;DHT22;63134;52.020;4.714;2023-02-18T07:46:50;11.80;97.20
22787;DHT22;63134;52.020;4.714;2023-02-18T07:49:37;11.80;97.10
22787;DHT22;63134;52.020;4.714;2023-02-18T07:52:23;11.80;96.70
22787;DHT22;63134;52.020;4.714;2023-02-18T07:55:11;11.80;96.30
22787;DHT22;63134;52.020;4.714;2023-02-18T07:57:56;11.90;96.30
22787;DHT22;63134;52.020;4.714;2023-02-18T08:00:45;11.90;95.80
22787;DHT22;63134;52.020;4.714;2023-02-18T08:03:32;11.90;95.50
22787;DHT22;63134;52.020;4.714;2023-02-18T08:06:30;11.80;95.20
22787;DHT22;63134;52.020;4.714;2023-02-18T08:09:19;11.80;95.30
22787;DHT22;63134;52.020;4.714;2023-02-18T08:12:04;11.70;95.00
22787;DHT22;63134;52.020;4.714;2023-02-18T08:14:50;11.80;94.70
22787;DHT22;63134;52.020;4.714;2023-02-18T08:17:36;11.70;94.70
22787;DHT22;63134;52.020;4.714;2023-02-18T08:20:24;11.70;94.60
22787;DHT22;63134;52.020;4.714;2023-02-18T08:23:10;11.70;94.50
22787;DHT22;63134;52.020;4.714;2023-02-18T08:25:56;11.70;94.10
22787;DHT22;63134;52.020;4.714;2023-02-18T08:28:45;11.60;94.00
22787;DHT22;63134;52.020;4.714;2023-02-18T08:31:31;11.50;94.20
22787;DHT22;63134;52.020;4.714;2023-02-18T08:34:17;11.30;94.70
22787;DHT22;63134;52.020;4.714;2023-02-18T08:37:03;11.30;95.20
22787;DHT22;63134;52.020;4.714;2023-02-18T08:39:49;11.30;95.50
22787;DHT22;63134;52.020;4.714;2023-02-18T08:42:34;11.20;95.80
22787;DHT22;63134;52.020;4.714;2023-02-18T08:45:20;11.30;96.10
22787;DHT22;63134;52.020;4.714;2023-02-18T08:48:06;11.30;96.10
22787;DHT22;63134;52.020;4.714;2023-02-18T08:51:16;11.40;96.00
22787;DHT22;63134;52.020;4.714;2023-02-18T08:54:02;11.40;95.90
22787;DHT22;63134;52.020;4.714;2023-02-18T08:56:47;11.50;96.00
22787;DHT22;63134;52.020;4.714;2023-02-18T08:59:33;11.50;95.90
22787;DHT22;63134;52.020;4.714;2023-02-18T09:02:19;11.60;95.60
22787;DHT22;63134;52.020;4.714;2023-02-18T09:05:05;11.60;95.40
22787;DHT22;63134;52.020;4.714;2023-02-18T09:07:50;11.70;95.30
22787;DHT22;63134;52.020;4.714;2023-02-18T09:10:36;11.70;94.80
22787;DHT22;63134;52.020;4.714;2023-02-18T09:13:21;11.70;94.60
22787;DHT22;63134;52.020;4.714;2023-02-18T09:16:16;11.70;94.40
22787;DHT22;63134;52.020;4.714;2023-02-18T09:19:05;11.80;94.10
22787;DHT22;63134;52.020;4.714;2023-02-18T09:21:53;11.90;94.00
22787;DHT22;63134;52.020;4.714;2023-02-18T09:24:40;11.90;93.90
22787;DHT22;63134;52.020;4.714;2023-02-18T09:27:26;12.00;93.70
22787;DHT22;63134;52.020;4.714;2023-02-18T09:30:18;12.00;93.40
22787;DHT22;63134;52.020;4.714;2023-02-18T09:33:03;12.00;93.40
22787;DHT22;63134;52.020;4.714;2023-02-18T09:35:51;12.00;93.10
22787;DHT22;63134;52.020;4.714;2023-02-18T09:38:39;12.00;93.10
22787;DHT22;63134;52.020;4.714;2023-02-18T09:41:42;12.00;93.10
22787;DHT22;63134;52.020;4.714;2023-02-18T09:44:45;12.00;93.00
22787;DHT22;63134;52.020;4.714;2023-02-18T09:47:41;12.10;93.00
22787;DHT22;63134;52.020;4.714;2023-02-18T09:50:30;12.20;92.90
22787;DHT22;63134;52.020;4.714;2023-02-18T09:53:18;12.20;92.90
22787;DHT22;63134;52.020;4.714;2023-02-18T09:56:03;12.20;92.70
22787;DHT22;63134;52.020;4.714;2023-02-18T09:58:51;12.30;92.80
22787;DHT22;63134;52.020;4.714;2023-02-18T10:01:40;12.30;92.60
22787;DHT22;63134;52.020;4.714;2023-02-18T10:04:30;12.30;92.40
22787;DHT22;63134;52.020;4.714;2023-02-18T10:07:31;12.30;92.50
22787;DHT22;63134;52.020;4.714;2023-02-18T10:13:16;12.40;92.40
22787;DHT22;63134;52.020;4.714;2023-02-18T10:16:03;12.50;92.20
22787;DHT22;63134;52.020;4.714;2023-02-18T10:18:53;12.50;92.20
22787;DHT22;63134;52.020;4.714;2023-02-18T10:21:40;12.50;92.20
22787;DHT22;63134;52.020;4.714;2023-02-18T10:27:17;12.40;92.20
22787;DHT22;63134;52.020;4.714;2023-02-18T10:45:48;12.90;91.70
22787;DHT22;63134;52.020;4.714;2023-02-18T10:51:47;12.90;91.80
22787;DHT22;63134;52.020;4.714;2023-02-18T10:55:03;12.90;91.90
22787;DHT22;63134;52.020;4.714;2023-02-18T10:57:54;12.90;91.50
22787;DHT22;63134;52.020;4.714;2023-02-18T11:00:39;12.90;91.60
22787;DHT22;63134;52.020;4.714;2023-02-18T11:03:40;12.90;91.60
22787;DHT22;63134;52.020;4.714;2023-02-18T11:06:31;12.90;91.70
22787;DHT22;63134;52.020;4.714;2023-02-18T11:09:27;13.00;91.50
22787;DHT22;63134;52.020;4.714;2023-02-18T11:21:34;13.10;91.40
22787;DHT22;63134;52.020;4.714;2023-02-18T11:24:19;13.10;91.40
22787;DHT22;63134;52.020;4.714;2023-02-18T11:27:10;13.10;91.30
22787;DHT22;63134;52.020;4.714;2023-02-18T11:30:03;13.10;91.30
22787;DHT22;63134;52.020;4.714;2023-02-18T11:32:53;13.00;91.40
22787;DHT22;63134;52.020;4.714;2023-02-18T11:35:51;13.10;91.40
22787;DHT22;63134;52.020;4.714;2023-02-18T11:38:49;13.10;91.30
22787;DHT22;63134;52.020;4.714;2023-02-18T11:41:41;13.10;91.30
22787;DHT22;63134;52.020;4.714;2023-02-18T11:44:39;13.10;91.40
22787;DHT22;63134;52.020;4.714;2023-02-18T11:47:30;13.10;91.40
22787;DHT22;63134;52.020;4.714;2023-02-18T11:50:21;13.10;91.40
22787;DHT22;63134;52.020;4.714;2023-02-18T11:53:27;13.10;91.40
22787;DHT22;63134;52.020;4.714;2023-02-18T11:56:19;13.10;91.40
22787;DHT22;63134;52.020;4.714;2023-02-18T11:59:05;13.20;91.50
22787;DHT22;63134;52.020;4.714;2023-02-18T12:05:03;13.20;91.40
22787;DHT22;63134;52.020;4.714;2023-02-18T12:08:00;13.30;91.40
22787;DHT22;63134;52.020;4.714;2023-02-18T12:10:52;13.40;91.30
22787;DHT22;63134;52.020;4.714;2023-02-18T12:13:45;13.50;91.00
22787;DHT22;63134;52.020;4.714;2023-02-18T12:16:52;13.70;90.70
22787;DHT22;63134;52.020;4.714;2023-02-18T12:19:53;14.00;90.30
22787;DHT22;63134;52.020;4.714;2023-02-18T12:32:01;15.70;83.50
22787;DHT22;63134;52.020;4.714;2023-02-18T12:38:20;15.50;82.70
22787;DHT22;63134;52.020;4.714;2023-02-18T12:44:31;15.80;82.60
22787;DHT22;63134;52.020;4.714;2023-02-18T12:50:54;16.30;79.70
22787;DHT22;63134;52.020;4.714;2023-02-18T12:54:03;16.40;79.30
22787;DHT22;63134;52.020;4.714;2023-02-18T13:00:10;16.70;78.80
22787;DHT22;63134;52.020;4.714;2023-02-18T13:09:19;16.00;78.30
22787;DHT22;63134;52.020;4.714;2023-02-18T13:12:23;15.70;79.40
22787;DHT22;63134;52.020;4.714;2023-02-18T13:18:00;16.30;81.40
22787;DHT22;63134;52.020;4.714;2023-02-18T13:20:56;16.30;79.00
22787;DHT22;63134;52.020;4.714;2023-02-18T13:24:02;16.10;78.00
22787;DHT22;63134;52.020;4.714;2023-02-18T13:26:53;16.00;78.10
22787;DHT22;63134;52.020;4.714;2023-02-18T13:35:38;16.50;78.30
22787;DHT22;63134;52.020;4.714;2023-02-18T13:41:35;17.00;76.40
22787;DHT22;63134;52.020;4.714;2023-02-18T13:47:07;17.90;73.10
22787;DHT22;63134;52.020;4.714;2023-02-18T13:49:53;18.20;72.20
22787;DHT22;63134;52.020;4.714;2023-02-18T13:52:38;18.60;69.30
22787;DHT22;63134;52.020;4.714;2023-02-18T13:55:38;18.60;70.20
22787;DHT22;63134;52.020;4.714;2023-02-18T14:05:23;19.20;66.10
22787;DHT22;63134;52.020;4.714;2023-02-18T14:08:28;19.60;65.40
22787;DHT22;63134;52.020;4.714;2023-02-18T14:14:32;20.00;63.70
22787;DHT22;63134;52.020;4.714;2023-02-18T14:22:51;19.80;61.50
22787;DHT22;63134;52.020;4.714;2023-02-18T14:25:40;19.60;61.60
22787;DHT22;63134;52.020;4.714;2023-02-18T14:37:53;17.60;68.50
22787;DHT22;63134;52.020;4.714;2023-02-18T14:50:23;15.80;75.40
22787;DHT22;63134;52.020;4.714;2023-02-18T14:53:16;15.60;76.80
22787;DHT22;63134;52.020;4.714;2023-02-18T14:56:03;15.50;77.20
22787;DHT22;63134;52.020;4.714;2023-02-18T14:58:55;15.40;78.90
22787;DHT22;63134;52.020;4.714;2023-02-18T15:01:41;15.10;79.00
22787;DHT22;63134;52.020;4.714;2023-02-18T15:04:27;15.00;80.00
22787;DHT22;63134;52.020;4.714;2023-02-18T15:07:13;14.70;80.90
22787;DHT22;63134;52.020;4.714;2023-02-18T15:10:02;14.60;82.20
22787;DHT22;63134;52.020;4.714;2023-02-18T15:12:48;14.50;82.70
22787;DHT22;63134;52.020;4.714;2023-02-18T15:15:33;14.40;83.00
22787;DHT22;63134;52.020;4.714;2023-02-18T15:18:26;14.30;83.40
22787;DHT22;63134;52.020;4.714;2023-02-18T15:21:26;14.20;83.90
22787;DHT22;63134;52.020;4.714;2023-02-18T15:24:34;14.10;84.90
22787;DHT22;63134;52.020;4.714;2023-02-18T15:27:29;14.00;85.10
22787;DHT22;63134;52.020;4.714;2023-02-18T15:30:23;13.90;85.70
22787;DHT22;63134;52.020;4.714;2023-02-18T15:33:11;13.70;86.60
22787;DHT22;63134;52.020;4.714;2023-02-18T15:36:12;13.60;87.20
22787;DHT22;63134;52.020;4.714;2023-02-18T15:38:58;13.50;87.70
22787;DHT22;63134;52.020;4.714;2023-02-18T15:41:44;13.50;88.10
22787;DHT22;63134;52.020;4.714;2023-02-18T15:44:32;13.50;88.60
22787;DHT22;63134;52.020;4.714;2023-02-18T15:47:22;13.50;89.50
22787;DHT22;63134;52.020;4.714;2023-02-18T15:51:01;13.40;88.90
22787;DHT22;63134;52.020;4.714;2023-02-18T15:53:26;13.40;89.50
22787;DHT22;63134;52.020;4.714;2023-02-18T15:56:19;13.30;89.70
22787;DHT22;63134;52.020;4.714;2023-02-18T15:59:16;13.20;90.10
22787;DHT22;63134;52.020;4.714;2023-02-18T16:02:31;13.20;90.20
22787;DHT22;63134;52.020;4.714;2023-02-18T16:05:17;13.10;90.40
22787;DHT22;63134;52.020;4.714;2023-02-18T16:08:30;13.00;90.50
22787;DHT22;63134;52.020;4.714;2023-02-18T16:11:15;13.00;90.60
22787;DHT22;63134;52.020;4.714;2023-02-18T16:14:04;13.00;90.80
22787;DHT22;63134;52.020;4.714;2023-02-18T16:17:22;12.90;90.90
22787;DHT22;63134;52.020;4.714;2023-02-18T16:20:23;12.90;91.10
22787;DHT22;63134;52.020;4.714;2023-02-18T16:23:13;12.80;91.30
22787;DHT22;63134;52.020;4.714;2023-02-18T16:26:18;12.80;91.30
22787;DHT22;63134;52.020;4.714;2023-02-18T16:29:13;12.80;91.50
22787;DHT22;63134;52.020;4.714;2023-02-18T16:31:59;12.70;91.60
22787;DHT22;63134;52.020;4.714;2023-02-18T16:34:52;12.70;91.80
22787;DHT22;63134;52.020;4.714;2023-02-18T16:37:40;12.60;91.80
22787;DHT22;63134;52.020;4.714;2023-02-18T16:40:30;12.60;92.00
22787;DHT22;63134;52.020;4.714;2023-02-18T16:43:24;12.60;92.00
22787;DHT22;63134;52.020;4.714;2023-02-18T16:46:17;12.60;92.10
22787;DHT22;63134;52.020;4.714;2023-02-18T16:49:02;12.50;92.20
22787;DHT22;63134;52.020;4.714;2023-02-18T16:51:48;12.50;92.40
22787;DHT22;63134;52.020;4.714;2023-02-18T16:54:34;12.50;92.60
22787;DHT22;63134;52.020;4.714;2023-02-18T16:57:22;12.40;92.60
22787;DHT22;63134;52.020;4.714;2023-02-18T17:00:08;12.40;92.70
22787;DHT22;63134;52.020;4.714;2023-02-18T17:02:55;12.40;92.80
22787;DHT22;63134;52.020;4.714;2023-02-18T17:05:42;12.40;92.80
22787;DHT22;63134;52.020;4.714;2023-02-18T17:08:28;12.40;92.90
22787;DHT22;63134;52.020;4.714;2023-02-18T17:14:02;12.30;93.10
22787;DHT22;63134;52.020;4.714;2023-02-18T17:16:52;12.30;93.20
22787;DHT22;63134;52.020;4.714;2023-02-18T17:19:37;12.30;93.50
22787;DHT22;63134;52.020;4.714;2023-02-18T17:22:22;12.30;93.60
22787;DHT22;63134;52.020;4.714;2023-02-18T17:25:20;12.30;93.70
22787;DHT22;63134;52.020;4.714;2023-02-18T17:28:07;12.30;93.70
22787;DHT22;63134;52.020;4.714;2023-02-18T17:31:02;12.30;93.80
22787;DHT22;63134;52.020;4.714;2023-02-18T17:33:52;12.30;93.80
22787;DHT22;63134;52.020;4.714;2023-02-18T17:36:37;12.20;94.30
22787;DHT22;63134;52.020;4.714;2023-02-18T17:39:29;12.30;94.10
22787;DHT22;63134;52.020;4.714;2023-02-18T17:42:15;12.30;94.20
22787;DHT22;63134;52.020;4.714;2023-02-18T17:45:01;12.30;94.10
22787;DHT22;63134;52.020;4.714;2023-02-18T17:47:52;12.30;94.20
22787;DHT22;63134;52.020;4.714;2023-02-18T17:50:38;12.30;94.50
22787;DHT22;63134;52.020;4.714;2023-02-18T17:53:23;12.30;94.30
22787;DHT22;63134;52.020;4.714;2023-02-18T17:56:17;12.30;94.30
22787;DHT22;63134;52.020;4.714;2023-02-18T17:59:12;12.30;94.30
22787;DHT22;63134;52.020;4.714;2023-02-18T18:01:57;12.30;94.30
22787;DHT22;63134;52.020;4.714;2023-02-18T18:04:43;12.30;94.50
22787;DHT22;63134;52.020;4.714;2023-02-18T18:07:28;12.30;94.60
22787;DHT22;63134;52.020;4.714;2023-02-18T18:10:15;12.30;94.60
22787;DHT22;63134;52.020;4.714;2023-02-18T18:13:03;12.40;94.60
22787;DHT22;63134;52.020;4.714;2023-02-18T18:15:53;12.40;94.50
22787;DHT22;63134;52.020;4.714;2023-02-18T18:18:42;12.40;94.50
22787;DHT22;63134;52.020;4.714;2023-02-18T18:21:48;12.50;94.40
22787;DHT22;63134;52.020;4.714;2023-02-18T18:24:34;12.50;94.50
22787;DHT22;63134;52.020;4.714;2023-02-18T18:27:19;12.40;94.50
22787;DHT22;63134;52.020;4.714;2023-02-18T18:30:05;12.40;94.50
22787;DHT22;63134;52.020;4.714;2023-02-18T18:32:51;12.40;94.60
22787;DHT22;63134;52.020;4.714;2023-02-18T18:35:40;12.50;94.60
22787;DHT22;63134;52.020;4.714;2023-02-18T18:38:26;12.50;94.50
22787;DHT22;63134;52.020;4.714;2023-02-18T18:41:21;12.50;94.50
22787;DHT22;63134;52.020;4.714;2023-02-18T18:44:08;12.50;94.50
22787;DHT22;63134;52.020;4.714;2023-02-18T18:46:54;12.40;94.60
22787;DHT22;63134;52.020;4.714;2023-02-18T18:49:39;12.50;94.60
22787;DHT22;63134;52.020;4.714;2023-02-18T18:52:25;12.40;94.60
22787;DHT22;63134;52.020;4.714;2023-02-18T18:58:03;12.40;94.80
22787;DHT22;63134;52.020;4.714;2023-02-18T19:00:54;12.40;94.90
22787;DHT22;63134;52.020;4.714;2023-02-18T19:03:39;12.40;94.90
22787;DHT22;63134;52.020;4.714;2023-02-18T19:06:29;12.40;94.80
22787;DHT22;63134;52.020;4.714;2023-02-18T19:09:15;12.40;94.80
22787;DHT22;63134;52.020;4.714;2023-02-18T19:12:00;12.50;94.80
22787;DHT22;63134;52.020;4.714;2023-02-18T19:14:46;12.40;94.80
22787;DHT22;63134;52.020;4.714;2023-02-18T19:17:31;12.40;95.00
22787;DHT22;63134;52.020;4.714;2023-02-18T19:20:21;12.40;95.00
22787;DHT22;63134;52.020;4.714;2023-02-18T19:23:07;12.40;95.00
22787;DHT22;63134;52.020;4.714;2023-02-18T19:25:53;12.40;95.00
22787;DHT22;63134;52.020;4.714;2023-02-18T19:28:42;12.40;95.20
22787;DHT22;63134;52.020;4.714;2023-02-18T19:31:30;12.40;95.30
22787;DHT22;63134;52.020;4.714;2023-02-18T19:34:16;12.40;95.40
22787;DHT22;63134;52.020;4.714;2023-02-18T19:37:01;12.40;95.40
22787;DHT22;63134;52.020;4.714;2023-02-18T19:39:47;12.20;95.10
22787;DHT22;63134;52.020;4.714;2023-02-18T19:42:34;12.10;95.20
22787;DHT22;63134;52.020;4.714;2023-02-18T19:45:22;12.00;95.70
22787;DHT22;63134;52.020;4.714;2023-02-18T19:48:11;11.90;96.30
22787;DHT22;63134;52.020;4.714;2023-02-18T19:50:56;11.80;96.60
22787;DHT22;63134;52.020;4.714;2023-02-18T19:53:42;11.80;96.90
22787;DHT22;63134;52.020;4.714;2023-02-18T19:56:27;11.80;97.00
22787;DHT22;63134;52.020;4.714;2023-02-18T19:59:13;11.80;97.00
22787;DHT22;63134;52.020;4.714;2023-02-18T20:02:01;11.80;97.10
22787;DHT22;63134;52.020;4.714;2023-02-18T20:04:47;11.70;97.50
22787;DHT22;63134;52.020;4.714;2023-02-18T20:07:34;11.70;97.70
22787;DHT22;63134;52.020;4.714;2023-02-18T20:10:20;11.70;97.90
22787;DHT22;63134;52.020;4.714;2023-02-18T20:13:34;11.70;98.20